createdAt,value
2022-12-19T00:02:02.843Z,0.66
2022-12-19T00:07:05.697Z,-1.64
2022-12-19T00:12:15.894Z,-3.15
2022-12-19T00:17:21.744Z,-4.29
2022-12-19T00:22:24.647Z,-3.00
2022-12-19T00:27:27.360Z,1.00
2022-12-19T00:32:30.211Z,3.08
2022-12-19T00:37:33.050Z,4.33
2022-12-19T00:42:35.853Z,4.84
2022-12-19T00:47:38.543Z,1.76
2022-12-19T00:52:41.235Z,-0.78
2022-12-19T00:57:43.943Z,-2.37
2022-12-19T01:02:46.957Z,-3.49
2022-12-19T01:07:49.819Z,-4.26
2022-12-19T01:12:52.625Z,-3.46
2022-12-19T01:17:55.329Z,0.95
2022-12-19T01:23:00.176Z,3.21
2022-12-19T01:28:04.226Z,4.38
2022-12-19T01:33:09.053Z,5.03
2022-12-19T01:38:17.387Z,3.51
2022-12-19T01:43:21.860Z,-0.15
2022-12-19T01:48:29.246Z,-2.39
2022-12-19T01:53:37.349Z,-3.88
2022-12-19T01:58:51.030Z,-3.79
2022-12-19T02:04:02.626Z,0.72
2022-12-19T02:09:05.357Z,3.15
2022-12-19T02:14:08.103Z,4.40
2022-12-19T02:19:41.760Z,4.60
2022-12-19T02:25:12.411Z,0.50
2022-12-19T02:30:33.926Z,-2.34
2022-12-19T02:35:45.086Z,-3.99
2022-12-19T02:41:21.860Z,-3.24
2022-12-19T02:46:25.645Z,1.25
2022-12-19T02:51:28.594Z,3.24
2022-12-19T02:57:09.781Z,4.29
2022-12-19T03:02:25.886Z,4.52
2022-12-19T03:07:42.436Z,4.89
2022-12-19T03:12:59.770Z,4.48
2022-12-19T03:18:02.603Z,0.42
2022-12-19T03:23:05.915Z,-2.47
2022-12-19T03:28:20.672Z,-4.23
2022-12-19T03:33:25.013Z,-2.04
2022-12-19T03:38:28.413Z,1.60
2022-12-19T03:43:32.879Z,3.14
2022-12-19T03:48:49.080Z,4.15
2022-12-19T03:53:57.943Z,4.89
2022-12-19T03:59:09.961Z,5.08
2022-12-19T04:04:14.202Z,1.39
2022-12-19T04:09:22.404Z,-1.89
2022-12-19T04:14:46.014Z,-3.77
2022-12-19T04:20:01.465Z,-3.53
2022-12-19T04:25:10.048Z,1.19
2022-12-19T04:30:16.424Z,3.16
2022-12-19T04:35:19.320Z,3.85
2022-12-19T04:40:22.032Z,4.12
2022-12-19T04:45:24.715Z,4.66
2022-12-19T04:50:28.039Z,4.73
2022-12-19T04:55:30.981Z,4.90
2022-12-19T05:00:34.203Z,5.10
2022-12-19T05:05:37.280Z,4.95
2022-12-19T05:10:40.071Z,4.81
2022-12-19T05:15:43.428Z,4.63
2022-12-19T05:20:49.029Z,4.46
2022-12-19T05:25:52.168Z,4.81
2022-12-19T05:31:04.335Z,5.03
2022-12-19T05:36:09.135Z,4.78
2022-12-19T05:41:16.152Z,4.34
2022-12-19T05:46:19.631Z,4.18
2022-12-19T05:51:22.549Z,4.10
2022-12-19T05:56:25.254Z,3.94
2022-12-19T06:01:28.495Z,3.83
2022-12-19T06:06:31.257Z,3.52
2022-12-19T06:11:34.056Z,3.43
2022-12-19T06:16:36.810Z,3.36
2022-12-19T06:21:45.511Z,3.32
2022-12-19T06:26:50.951Z,3.44
2022-12-19T06:31:53.722Z,3.44
2022-12-19T06:36:56.481Z,3.64
2022-12-19T06:42:18.308Z,3.32
2022-12-19T06:47:23.046Z,3.40
2022-12-19T06:52:25.851Z,3.35
2022-12-19T06:57:29.181Z,3.33
2022-12-19T07:02:32.850Z,3.45
2022-12-19T07:07:39.131Z,3.39
2022-12-19T07:12:42.175Z,3.45
2022-12-19T07:17:44.926Z,3.53
2022-12-19T07:22:48.682Z,3.69
2022-12-19T07:27:53.350Z,3.94
2022-12-19T07:32:56.645Z,3.73
2022-12-19T07:38:06.961Z,3.94
2022-12-19T07:43:10.025Z,3.82
2022-12-19T07:48:20.176Z,4.00
2022-12-19T07:53:23.122Z,3.82
2022-12-19T07:58:25.854Z,4.27
2022-12-19T08:03:28.884Z,4.40
2022-12-19T08:08:33.067Z,4.52
2022-12-19T08:13:40.855Z,4.74
2022-12-19T08:18:46.145Z,4.65
2022-12-19T08:23:48.904Z,4.57
2022-12-19T08:28:57.076Z,5.01
2022-12-19T08:34:00.729Z,4.38
2022-12-19T08:39:07.385Z,0.58
2022-12-19T08:44:11.670Z,-1.85
2022-12-19T08:49:15.584Z,-3.30
2022-12-19T08:54:18.354Z,-4.20
2022-12-19T08:59:30.563Z,-2.74
2022-12-19T09:06:03.630Z,0.24
2022-12-19T09:09:57.163Z,-2.21
2022-12-19T09:14:59.924Z,-3.56
2022-12-19T09:20:02.706Z,-3.89
2022-12-19T09:25:06.162Z,-0.14
2022-12-19T09:30:12.837Z,-1.08
2022-12-19T09:35:15.773Z,-2.86
2022-12-19T09:40:20.537Z,-3.53
2022-12-19T09:45:56.122Z,0.13
2022-12-19T09:51:16.939Z,-0.48
2022-12-19T09:56:21.171Z,-2.38
2022-12-19T10:01:32.584Z,-3.24
2022-12-19T10:07:15.773Z,-2.90
2022-12-19T10:12:37.905Z,0.96
2022-12-19T10:18:06.100Z,-1.37
2022-12-19T10:23:29.342Z,-2.68
2022-12-19T10:28:44.345Z,0.53
2022-12-19T10:34:24.536Z,0.26
2022-12-19T10:39:43.060Z,-1.82
2022-12-19T10:44:48.976Z,-2.44
2022-12-19T10:49:51.983Z,1.46
2022-12-19T10:54:54.777Z,1.63
2022-12-19T10:59:57.487Z,-0.05
2022-12-19T11:05:00.473Z,-0.36
2022-12-19T11:12:21.542Z,-0.03
2022-12-19T11:21:55.541Z,1.02
2022-12-19T11:29:46.426Z,1.78
2022-12-19T11:30:47.664Z,2.22
2022-12-19T11:32:40.345Z,2.71
2022-12-19T11:37:56.551Z,3.43
2022-12-19T11:48:43.827Z,3.91
2022-12-19T11:54:24.502Z,3.99
2022-12-19T11:59:36.854Z,4.55
2022-12-19T12:05:06.839Z,4.96
2022-12-19T12:12:08.959Z,5.42
2022-12-19T12:28:06.203Z,5.50
2022-12-19T12:31:14.156Z,4.82
2022-12-19T12:32:00.571Z,4.17
2022-12-19T12:35:31.721Z,3.31
2022-12-19T12:38:36.298Z,2.19
2022-12-19T12:43:47.864Z,1.32
2022-12-19T12:48:57.323Z,0.64
2022-12-19T12:54:07.809Z,-0.37
2022-12-19T12:59:28.252Z,-1.32
2022-12-19T13:04:41.150Z,-2.03
2022-12-19T13:09:44.930Z,-2.48
2022-12-19T13:14:52.664Z,-2.82
2022-12-19T13:19:58.256Z,-3.15
2022-12-19T13:25:01.759Z,-3.39
2022-12-19T13:30:08.156Z,-3.62
2022-12-19T13:36:22.987Z,-3.81
2022-12-19T13:40:53.936Z,-3.97
2022-12-19T13:46:20.750Z,-4.11
2022-12-19T13:51:23.857Z,-4.18
2022-12-19T13:56:30.477Z,-4.28
2022-12-19T14:01:36.604Z,-4.37
2022-12-19T14:06:43.052Z,-2.18
2022-12-19T14:12:27.346Z,-0.25
2022-12-19T14:17:14.529Z,-2.18
2022-12-19T14:22:24.662Z,-3.20
2022-12-19T14:28:26.134Z,-3.75
2022-12-19T14:33:45.212Z,-4.08
2022-12-19T14:39:22.830Z,-3.33
2022-12-19T14:52:08.189Z,1.36
2022-12-19T14:54:25.031Z,-0.26
2022-12-19T14:56:11.597Z,-2.03
2022-12-19T15:01:09.742Z,-3.02
2022-12-19T15:07:05.806Z,-3.54
2022-12-19T15:13:47.275Z,-3.83
2022-12-19T15:17:26.553Z,-0.62
2022-12-19T15:22:29.263Z,0.54
2022-12-19T15:27:32.478Z,-1.54
2022-12-19T15:32:35.284Z,-2.64
2022-12-19T15:37:37.974Z,-3.23
2022-12-19T15:42:41.586Z,-2.81
2022-12-19T15:47:44.654Z,0.55
2022-12-19T15:52:47.818Z,-0.91
2022-12-19T15:57:56.651Z,-2.14
2022-12-19T16:08:26.240Z,-1.89
2022-12-19T16:13:32.411Z,1.78
2022-12-19T16:18:35.825Z,0.22
2022-12-19T16:23:38.614Z,-1.28
2022-12-19T16:28:41.464Z,-2.04
2022-12-19T16:33:44.203Z,-2.52
2022-12-19T16:38:47.429Z,-2.53
2022-12-19T16:43:50.647Z,0.40
2022-12-19T16:48:53.360Z,-0.44
2022-12-19T16:54:00.614Z,-1.66
2022-12-19T16:59:11.267Z,-2.27
2022-12-19T17:04:19.988Z,-2.62
2022-12-19T17:09:24.846Z,-2.38
2022-12-19T17:14:31.853Z,1.93
2022-12-19T17:19:39.182Z,3.46
2022-12-19T17:24:43.796Z,0.99
2022-12-19T17:29:47.398Z,-0.55
2022-12-19T17:34:50.418Z,-1.41
2022-12-19T17:39:53.212Z,-1.95
2022-12-19T17:44:56.132Z,-2.29
2022-12-19T17:49:59.676Z,-2.54
2022-12-19T17:55:22.367Z,-2.69
2022-12-19T18:00:30.694Z,-0.38
2022-12-19T18:05:37.068Z,3.36
2022-12-19T18:10:40.530Z,1.58
2022-12-19T18:15:44.153Z,-0.12
2022-12-19T18:20:47.153Z,-0.98
2022-12-19T18:25:54.739Z,-1.54
2022-12-19T18:31:22.454Z,-1.91
2022-12-19T18:36:27.919Z,-0.48
2022-12-19T18:41:30.660Z,3.24
2022-12-19T18:46:34.399Z,1.44
2022-12-19T18:51:37.299Z,-0.23
2022-12-19T18:56:40.134Z,-1.15
2022-12-19T19:01:46.700Z,-1.69
2022-12-19T19:06:52.662Z,0.81
2022-12-19T19:11:55.663Z,3.52
2022-12-19T19:16:58.585Z,1.18
2022-12-19T19:22:01.576Z,-0.24
2022-12-19T19:27:04.379Z,-1.04
2022-12-19T19:32:07.496Z,-1.50
2022-12-19T19:37:14.158Z,0.68
2022-12-19T19:42:18.785Z,2.50
2022-12-19T19:47:26.731Z,0.78
2022-12-19T19:52:29.595Z,-0.25
2022-12-19T19:57:32.356Z,1.83
2022-12-19T20:02:35.829Z,1.82
2022-12-19T20:07:38.827Z,0.39
2022-12-19T20:12:41.583Z,-0.34
2022-12-19T20:17:44.429Z,2.30
2022-12-19T20:22:48.034Z,4.58
2022-12-19T20:27:50.767Z,2.20
2022-12-19T20:32:53.542Z,0.82
2022-12-19T20:37:56.357Z,0.05
2022-12-19T20:42:59.081Z,0.67
2022-12-19T20:48:02.183Z,4.26
2022-12-19T20:53:04.980Z,3.54
2022-12-19T20:58:07.763Z,1.60
2022-12-19T21:03:27.560Z,0.50
2022-12-19T21:08:32.057Z,-0.26
2022-12-19T21:13:36.243Z,0.20
2022-12-19T21:18:41.235Z,4.24
2022-12-19T21:23:44.983Z,5.04
2022-12-19T21:28:47.809Z,2.55
2022-12-19T21:33:53.576Z,0.98
2022-12-19T21:38:59.171Z,0.17
2022-12-19T21:44:02.128Z,2.49
2022-12-19T21:49:05.153Z,5.83
2022-12-19T21:54:09.689Z,5.77
2022-12-19T21:59:14.651Z,3.07
2022-12-19T22:04:23.801Z,2.45
2022-12-19T22:09:26.644Z,3.60
2022-12-19T22:14:29.392Z,3.05
2022-12-19T22:19:32.208Z,3.66
2022-12-19T22:24:35.315Z,3.83
2022-12-19T22:29:38.111Z,4.43
2022-12-19T22:34:40.925Z,2.61
2022-12-19T22:39:43.646Z,4.86
2022-12-19T22:44:46.412Z,3.86
2022-12-19T22:49:52.499Z,4.64
2022-12-19T22:54:55.184Z,5.19
2022-12-19T22:59:57.892Z,3.72
2022-12-19T23:05:00.766Z,5.59
2022-12-19T23:10:03.989Z,3.77
2022-12-19T23:15:07.616Z,5.89
2022-12-19T23:20:11.030Z,4.90
2022-12-19T23:25:13.896Z,5.17
2022-12-19T23:30:16.856Z,5.44
2022-12-19T23:35:19.547Z,4.32
2022-12-19T23:40:22.362Z,6.17
2022-12-19T23:45:25.217Z,5.07
2022-12-19T23:50:28.317Z,6.50
2022-12-19T23:55:31.058Z,4.95
